Time;durP1;ratioP1;P1;durP2;ratioP2;P2;SDS_P1;SDS_P2;PMS_P1;PMS_P2;Temp;Humidity;BMP_temperature;BMP_pressure;BME280_temperature;BME280_humidity;BME280_pressure;Samples;Min_cycle;Max_cycle;Signal;HPM_P1;HPM_P2
2023/01/16 00:00:25;;;;;;;0.00;0.00;;;;;;;;;;5056241;28;20265;-78
2023/01/16 00:02:54;;;;;;;0.00;0.00;;;;;;;;;;5055881;28;20207;-79
2023/01/16 00:05:22;;;;;;;0.00;0.00;;;;;;;;;;5055882;28;20704;-79
2023/01/16 00:07:51;;;;;;;0.00;0.00;;;;;;;;;;5055551;28;20227;-78
2023/01/16 00:10:20;;;;;;;0.00;0.00;;;;;;;;;;5055811;28;20203;-78
2023/01/16 00:12:48;;;;;;;0.00;0.00;;;;;;;;;;5056340;28;20614;-78
2023/01/16 00:15:17;;;;;;;0.00;0.00;;;;;;;;;;5056686;28;20328;-78
2023/01/16 00:17:48;;;;;;;0.00;0.00;;;;;;;;;;5056652;28;20223;-78
2023/01/16 00:20:16;;;;;;;0.00;0.00;;;;;;;;;;5056980;28;20611;-78
2023/01/16 00:22:45;;;;;;;0.00;0.00;;;;;;;;;;5056517;28;20230;-78
2023/01/16 00:25:14;;;;;;;0.00;0.00;;;;;;;;;;5056801;28;20249;-78
2023/01/16 00:27:42;;;;;;;0.00;0.00;;;;;;;;;;5056203;28;20215;-78
2023/01/16 00:30:11;;;;;;;0.00;0.00;;;;;;;;;;5055905;28;20219;-79
2023/01/16 00:32:39;;;;;;;0.00;0.00;;;;;;;;;;5056276;28;20668;-78
2023/01/16 00:35:09;;;;;;;0.00;0.00;;;;;;;;;;5056436;28;20241;-78
2023/01/16 00:37:38;;;;;;;0.00;0.00;;;;;;;;;;5055873;28;20253;-78
2023/01/16 00:40:07;;;;;;;0.00;0.00;;;;;;;;;;5056099;28;20234;-78
2023/01/16 00:42:35;;;;;;;0.00;0.00;;;;;;;;;;5055753;28;20203;-78
2023/01/16 00:45:04;;;;;;;0.00;0.00;;;;;;;;;;5056446;28;20206;-78
2023/01/16 00:47:32;;;;;;;0.00;0.00;;;;;;;;;;5056133;28;20761;-78
2023/01/16 00:50:01;;;;;;;0.00;0.00;;;;;;;;;;5055625;28;20218;-78
2023/01/16 00:52:30;;;;;;;0.00;0.00;;;;;;;;;;5055933;28;20211;-78
2023/01/16 00:54:59;;;;;;;0.00;0.00;;;;;;;;;;5055807;28;20567;-78
2023/01/16 00:57:27;;;;;;;0.00;0.00;;;;;;;;;;5055618;28;20609;-78
2023/01/16 00:59:56;;;;;;;0.00;0.00;;;;;;;;;;5055801;28;20681;-78
2023/01/16 01:02:24;;;;;;;0.00;0.00;;;;;;;;;;5055507;28;20207;-78
2023/01/16 01:04:52;;;;;;;0.00;0.00;;;;;;;;;;5055501;28;20306;-77
2023/01/16 01:07:21;;;;;;;0.00;0.00;;;;;;;;;;5071117;28;20219;-78
2023/01/16 01:09:51;;;;;;;0.00;0.00;;;;;;;;;;5069178;28;20277;-78
2023/01/16 01:12:19;;;;;;;0.00;0.00;;;;;;;;;;5054900;28;20268;-78
2023/01/16 01:14:47;;;;;;;0.00;0.00;;;;;;;;;;5055290;28;20207;-78
2023/01/16 01:17:16;;;;;;;0.00;0.00;;;;;;;;;;5055577;28;20661;-78
2023/01/16 01:19:44;;;;;;;0.00;0.00;;;;;;;;;;5055469;28;20252;-78
2023/01/16 01:22:13;;;;;;;0.00;0.00;;;;;;;;;;5055006;28;20207;-78
2023/01/16 01:24:41;;;;;;;0.00;0.00;;;;;;;;;;5054894;28;20211;-77
2023/01/16 01:27:11;;;;;;;0.00;0.00;;;;;;;;;;5055207;28;20233;-78
2023/01/16 01:29:39;;;;;;;0.10;0.10;;;;;;;;;;5054995;28;20741;-78
2023/01/16 01:32:08;;;;;;;0.00;0.00;;;;;;;;;;5055056;28;20203;-78
2023/01/16 01:34:37;;;;;;;0.00;0.00;;;;;;;;;;5054894;28;20199;-79
2023/01/16 01:37:06;;;;;;;0.00;0.00;;;;;;;;;;5052427;28;20616;-77
2023/01/16 01:39:34;;;;;;;0.00;0.00;;;;;;;;;;5047841;28;20618;-78
2023/01/16 01:44:54;;;;;;;0.00;0.00;;;;;;;;;;5055045;28;20234;-79
2023/01/16 01:47:25;;;;;;;0.00;0.00;;;;;;;;;;5054738;28;20765;-78
2023/01/16 01:49:54;;;;;;;0.00;0.00;;;;;;;;;;5053842;28;20257;-79
2023/01/16 01:52:23;;;;;;;0.00;0.00;;;;;;;;;;5054397;28;20211;-79
2023/01/16 01:54:55;;;;;;;0.00;0.00;;;;;;;;;;5053912;28;20206;-79
2023/01/16 01:57:25;;;;;;;0.10;0.10;;;;;;;;;;5054057;28;20223;-78
2023/01/16 01:59:58;;;;;;;0.00;0.00;;;;;;;;;;5053875;28;20184;-79
2023/01/16 02:02:27;;;;;;;0.00;0.00;;;;;;;;;;5054494;28;20617;-79
2023/01/16 02:04:57;;;;;;;0.00;0.00;;;;;;;;;;5054295;28;20576;-79
2023/01/16 02:07:26;;;;;;;0.00;0.00;;;;;;;;;;5047626;28;20696;-79
2023/01/16 02:09:57;;;;;;;0.00;0.00;;;;;;;;;;5054358;28;20219;-79
2023/01/16 02:12:25;;;;;;;0.00;0.00;;;;;;;;;;5054398;28;20643;-79
2023/01/16 02:14:57;;;;;;;0.00;0.00;;;;;;;;;;5053543;28;20257;-79
2023/01/16 02:20:16;;;;;;;0.00;0.00;;;;;;;;;;5054041;28;20199;-79
2023/01/16 02:22:55;;;;;;;0.00;0.00;;;;;;;;;;5054242;28;20187;-79
2023/01/16 02:25:43;;;;;;;0.10;0.10;;;;;;;;;;5053696;28;20191;-79
2023/01/16 02:28:28;;;;;;;0.00;0.00;;;;;;;;;;5053740;28;20255;-79
2023/01/16 02:31:04;;;;;;;0.10;0.10;;;;;;;;;;5053769;28;20221;-79
2023/01/16 02:33:37;;;;;;;0.00;0.00;;;;;;;;;;5057303;28;20635;-80
2023/01/16 02:36:09;;;;;;;0.00;0.00;;;;;;;;;;5057373;28;20219;-79
2023/01/16 02:38:44;;;;;;;0.00;0.00;;;;;;;;;;5057634;28;20349;-79
2023/01/16 02:41:15;;;;;;;0.00;0.00;;;;;;;;;;5057616;28;20179;-79
2023/01/16 02:43:48;;;;;;;0.00;0.00;;;;;;;;;;5057160;28;20199;-79
2023/01/16 02:46:23;;;;;;;0.00;0.00;;;;;;;;;;5057574;28;20253;-79
2023/01/16 02:48:55;;;;;;;0.00;0.00;;;;;;;;;;5057028;28;20261;-78
2023/01/16 02:51:30;;;;;;;0.00;0.00;;;;;;;;;;5057275;28;20220;-77
2023/01/16 02:54:02;;;;;;;0.00;0.00;;;;;;;;;;5056682;28;20190;-79
2023/01/16 02:56:33;;;;;;;0.00;0.00;;;;;;;;;;5056755;28;20214;-79
2023/01/16 02:59:02;;;;;;;0.00;0.00;;;;;;;;;;5057164;28;20695;-79
2023/01/16 03:01:34;;;;;;;0.00;0.00;;;;;;;;;;5056752;28;20249;-80
2023/01/16 03:04:07;;;;;;;0.00;0.00;;;;;;;;;;5056341;28;20215;-79
2023/01/16 03:06:43;;;;;;;0.00;0.00;;;;;;;;;;5056984;28;20191;-78
2023/01/16 03:09:24;;;;;;;0.03;0.03;;;;;;;;;;5037229;28;20223;-78
2023/01/16 03:11:58;;;;;;;0.00;0.00;;;;;;;;;;5065098;28;20656;-79
2023/01/16 03:14:32;;;;;;;0.00;0.00;;;;;;;;;;5056855;28;20628;-79
2023/01/16 03:17:09;;;;;;;0.00;0.00;;;;;;;;;;5056649;28;20193;-79
2023/01/16 03:19:44;;;;;;;0.10;0.10;;;;;;;;;;5056450;28;20199;-79
2023/01/16 03:22:14;;;;;;;0.00;0.00;;;;;;;;;;5056891;28;20252;-79
2023/01/16 03:24:48;;;;;;;0.00;0.00;;;;;;;;;;5056893;28;20210;-79
2023/01/16 03:27:22;;;;;;;0.10;0.10;;;;;;;;;;5056245;28;20287;-79
2023/01/16 03:29:55;;;;;;;0.00;0.00;;;;;;;;;;5056470;28;20265;-79
2023/01/16 03:32:28;;;;;;;0.00;0.00;;;;;;;;;;5056813;28;20218;-80
2023/01/16 03:34:58;;;;;;;0.00;0.00;;;;;;;;;;5056813;28;20186;-79
2023/01/16 03:37:30;;;;;;;0.00;0.00;;;;;;;;;;5056705;28;20250;-79
2023/01/16 03:40:00;;;;;;;0.00;0.00;;;;;;;;;;5056608;28;20237;-79
2023/01/16 03:42:33;;;;;;;0.10;0.10;;;;;;;;;;5056328;28;20190;-79
2023/01/16 03:45:04;;;;;;;0.10;0.10;;;;;;;;;;5055102;28;20194;-79
2023/01/16 03:47:36;;;;;;;0.00;0.00;;;;;;;;;;5055949;28;20224;-79
2023/01/16 03:50:07;;;;;;;0.00;0.00;;;;;;;;;;5056091;28;20212;-79
2023/01/16 03:52:37;;;;;;;0.10;0.10;;;;;;;;;;5056158;28;20189;-80
2023/01/16 03:55:09;;;;;;;0.00;0.00;;;;;;;;;;5056520;28;20206;-79
2023/01/16 03:57:39;;;;;;;0.03;0.03;;;;;;;;;;5056039;28;20284;-79
2023/01/16 04:00:09;;;;;;;0.07;0.07;;;;;;;;;;5055897;28;20241;-80
2023/01/16 04:02:42;;;;;;;0.00;0.00;;;;;;;;;;5055978;28;20201;-80
2023/01/16 04:05:15;;;;;;;0.00;0.00;;;;;;;;;;5055335;28;20668;-80
2023/01/16 04:07:46;;;;;;;0.00;0.00;;;;;;;;;;5055571;28;20235;-80
2023/01/16 04:10:17;;;;;;;0.10;0.10;;;;;;;;;;5055079;28;20237;-80
2023/01/16 04:12:49;;;;;;;0.00;0.00;;;;;;;;;;5055222;28;20619;-79
2023/01/16 04:15:18;;;;;;;0.00;0.00;;;;;;;;;;5055245;28;20199;-79
2023/01/16 04:17:48;;;;;;;0.00;0.00;;;;;;;;;;5055108;28;20715;-79
2023/01/16 04:20:17;;;;;;;0.00;0.00;;;;;;;;;;5055622;28;20649;-79
2023/01/16 04:22:48;;;;;;;0.00;0.00;;;;;;;;;;5055702;28;20227;-79
2023/01/16 04:25:17;;;;;;;0.10;0.10;;;;;;;;;;5055162;28;20216;-79
2023/01/16 04:27:46;;;;;;;0.10;0.10;;;;;;;;;;5050659;28;20241;-79
2023/01/16 04:30:15;;;;;;;0.00;0.00;;;;;;;;;;5035352;28;20668;-79
2023/01/16 04:32:44;;;;;;;0.00;0.00;;;;;;;;;;5039219;28;20203;-79
2023/01/16 04:35:14;;;;;;;0.00;0.00;;;;;;;;;;5035735;28;20207;-79
2023/01/16 04:37:42;;;;;;;0.10;0.10;;;;;;;;;;5035552;28;20288;-79
2023/01/16 04:40:11;;;;;;;0.10;0.10;;;;;;;;;;5035153;28;20231;-78
2023/01/16 04:42:40;;;;;;;0.00;0.00;;;;;;;;;;5053691;28;20220;-80
2023/01/16 04:45:09;;;;;;;0.00;0.00;;;;;;;;;;5054936;28;20204;-79
2023/01/16 04:47:37;;;;;;;0.00;0.00;;;;;;;;;;5055059;28;20315;-79
2023/01/16 04:50:06;;;;;;;0.10;0.10;;;;;;;;;;5054791;28;20206;-79
2023/01/16 04:52:36;;;;;;;0.00;0.00;;;;;;;;;;5054775;28;20229;-80
2023/01/16 04:55:05;;;;;;;0.10;0.10;;;;;;;;;;5054879;28;20266;-79
2023/01/16 04:57:33;;;;;;;0.00;0.00;;;;;;;;;;5054194;28;20261;-79
2023/01/16 05:00:03;;;;;;;0.00;0.00;;;;;;;;;;5054166;28;20411;-79
2023/01/16 05:02:31;;;;;;;0.03;0.03;;;;;;;;;;5054623;28;20206;-79
2023/01/16 05:05:00;;;;;;;0.00;0.00;;;;;;;;;;5054858;28;20193;-79
2023/01/16 05:07:28;;;;;;;0.00;0.00;;;;;;;;;;5054484;28;20230;-79
2023/01/16 05:09:58;;;;;;;0.00;0.00;;;;;;;;;;5048318;28;20207;-79
2023/01/16 05:12:26;;;;;;;0.00;0.00;;;;;;;;;;5049477;28;20256;-80
2023/01/16 05:14:55;;;;;;;0.10;0.10;;;;;;;;;;5053914;28;20789;-79
2023/01/16 05:17:24;;;;;;;0.10;0.10;;;;;;;;;;5061822;28;20220;-80
2023/01/16 05:19:53;;;;;;;0.10;0.10;;;;;;;;;;5053881;28;20202;-79
2023/01/16 05:22:21;;;;;;;0.10;0.10;;;;;;;;;;5053532;28;20200;-79
2023/01/16 05:24:50;;;;;;;0.10;0.10;;;;;;;;;;5053639;28;20609;-79
2023/01/16 05:27:20;;;;;;;0.00;0.00;;;;;;;;;;5053634;28;20220;-79
2023/01/16 05:29:48;;;;;;;0.00;0.00;;;;;;;;;;5054425;28;20282;-79
2023/01/16 05:32:16;;;;;;;0.10;0.10;;;;;;;;;;5043355;28;20224;-80
2023/01/16 05:34:45;;;;;;;0.00;0.00;;;;;;;;;;5044134;28;20208;-79
2023/01/16 05:37:13;;;;;;;0.00;0.00;;;;;;;;;;5033926;28;20227;-79
2023/01/16 05:39:42;;;;;;;0.00;0.00;;;;;;;;;;5033955;28;20208;-78
2023/01/16 05:42:20;;;;;;;0.10;0.10;;;;;;;;;;5051323;28;20233;-79
2023/01/16 05:44:51;;;;;;;0.10;0.10;;;;;;;;;;5053785;28;20541;-79
2023/01/16 05:47:19;;;;;;;0.00;0.00;;;;;;;;;;5053345;28;20253;-79
2023/01/16 05:49:48;;;;;;;0.00;0.00;;;;;;;;;;5053731;28;20260;-79
2023/01/16 05:52:16;;;;;;;0.00;0.00;;;;;;;;;;5053803;28;20590;-79
2023/01/16 05:54:44;;;;;;;0.00;0.00;;;;;;;;;;5050223;28;20218;-79
2023/01/16 05:57:13;;;;;;;0.00;0.00;;;;;;;;;;5048506;28;20258;-79
2023/01/16 05:59:45;;;;;;;0.00;0.00;;;;;;;;;;5055974;28;20286;-79
2023/01/16 06:02:15;;;;;;;0.00;0.00;;;;;;;;;;5053156;28;20218;-79
2023/01/16 06:04:44;;;;;;;0.00;0.00;;;;;;;;;;5042064;28;20226;-79
2023/01/16 06:07:15;;;;;;;0.00;0.00;;;;;;;;;;5054360;28;20227;-78
2023/01/16 06:09:45;;;;;;;0.03;0.03;;;;;;;;;;5045904;28;20212;-77
2023/01/16 06:12:16;;;;;;;0.00;0.00;;;;;;;;;;5056190;28;20241;-78
2023/01/16 06:14:45;;;;;;;0.07;0.07;;;;;;;;;;5057353;28;20659;-77
2023/01/16 06:17:18;;;;;;;0.10;0.10;;;;;;;;;;5049022;28;20669;-77
2023/01/16 06:19:47;;;;;;;0.07;0.07;;;;;;;;;;5073198;28;20658;-77
2023/01/16 06:22:15;;;;;;;0.00;0.00;;;;;;;;;;5055163;28;20196;-78
2023/01/16 06:24:44;;;;;;;0.03;0.03;;;;;;;;;;5057824;28;20296;-77
2023/01/16 06:27:12;;;;;;;0.00;0.00;;;;;;;;;;5058187;28;20222;-78
2023/01/16 06:29:41;;;;;;;0.10;0.10;;;;;;;;;;5057308;28;20228;-78
2023/01/16 06:32:10;;;;;;;0.00;0.00;;;;;;;;;;5058542;28;20222;-78
2023/01/16 06:34:39;;;;;;;0.10;0.10;;;;;;;;;;5067257;28;20213;-78
2023/01/16 06:37:08;;;;;;;0.00;0.00;;;;;;;;;;5040173;28;20203;-78
2023/01/16 06:39:36;;;;;;;0.00;0.00;;;;;;;;;;5055356;28;20256;-78
2023/01/16 06:42:05;;;;;;;0.00;0.00;;;;;;;;;;5047938;28;20711;-78
2023/01/16 06:44:33;;;;;;;0.00;0.00;;;;;;;;;;5041115;28;20206;-78
2023/01/16 06:47:02;;;;;;;0.00;0.00;;;;;;;;;;5056468;28;20207;-77
2023/01/16 06:49:31;;;;;;;0.00;0.00;;;;;;;;;;5057213;28;20286;-77
2023/01/16 06:52:01;;;;;;;0.10;0.10;;;;;;;;;;5057051;28;20584;-78
2023/01/16 06:54:29;;;;;;;0.00;0.00;;;;;;;;;;5057105;28;20199;-77
2023/01/16 06:56:57;;;;;;;0.03;0.03;;;;;;;;;;5057462;28;20205;-77
2023/01/16 06:59:26;;;;;;;0.10;0.10;;;;;;;;;;5057225;28;20212;-77
2023/01/16 07:01:54;;;;;;;0.10;0.10;;;;;;;;;;5056750;28;20204;-78
2023/01/16 07:04:23;;;;;;;0.00;0.00;;;;;;;;;;5057259;28;20215;-77
2023/01/16 07:06:52;;;;;;;0.00;0.00;;;;;;;;;;5057393;28;20228;-77
2023/01/16 07:09:28;;;;;;;0.00;0.00;;;;;;;;;;5057125;28;20199;-77
2023/01/16 07:11:56;;;;;;;0.10;0.10;;;;;;;;;;5057641;28;20210;-77
2023/01/16 07:22:46;;;;;;;0.00;0.00;;;;;;;;;;5056673;28;20245;-77
2023/01/16 07:25:17;;;;;;;0.00;0.00;;;;;;;;;;5056473;28;20251;-78
2023/01/16 07:27:48;;;;;;;0.00;0.00;;;;;;;;;;5056373;28;20297;-77
2023/01/16 07:30:17;;;;;;;0.00;0.00;;;;;;;;;;5044559;28;20657;-77
2023/01/16 07:32:45;;;;;;;0.00;0.00;;;;;;;;;;5041208;28;20234;-78
2023/01/16 07:35:14;;;;;;;0.00;0.00;;;;;;;;;;5036925;28;20250;-78
2023/01/16 07:37:43;;;;;;;0.00;0.00;;;;;;;;;;5036453;28;20233;-78
2023/01/16 07:40:12;;;;;;;0.00;0.00;;;;;;;;;;5036630;28;20202;-77
2023/01/16 07:42:42;;;;;;;0.00;0.00;;;;;;;;;;5036368;28;20617;-77
2023/01/16 07:45:10;;;;;;;0.10;0.10;;;;;;;;;;5036156;28;20208;-78
2023/01/16 07:47:39;;;;;;;0.00;0.00;;;;;;;;;;5036780;28;20291;-77
2023/01/16 07:50:08;;;;;;;0.10;0.10;;;;;;;;;;5036201;28;20615;-78
2023/01/16 07:52:36;;;;;;;0.00;0.00;;;;;;;;;;5039020;28;20222;-77
2023/01/16 07:55:05;;;;;;;0.07;0.07;;;;;;;;;;5050136;28;20282;-77
2023/01/16 07:57:33;;;;;;;0.00;0.00;;;;;;;;;;5037057;28;20302;-77
2023/01/16 08:00:03;;;;;;;0.10;0.10;;;;;;;;;;5036269;28;20237;-78
2023/01/16 08:02:31;;;;;;;0.00;0.00;;;;;;;;;;5036199;28;20199;-78
2023/01/16 08:05:00;;;;;;;0.00;0.00;;;;;;;;;;5040588;28;20203;-78
2023/01/16 08:07:28;;;;;;;0.07;0.07;;;;;;;;;;5041762;28;20224;-78
2023/01/16 08:09:57;;;;;;;0.10;0.10;;;;;;;;;;5055221;28;20239;-77
2023/01/16 08:12:25;;;;;;;0.00;0.00;;;;;;;;;;5056005;28;20224;-78
2023/01/16 08:14:53;;;;;;;0.00;0.00;;;;;;;;;;5055989;28;20208;-78
2023/01/16 08:17:23;;;;;;;0.07;0.07;;;;;;;;;;5050414;28;20226;-77
2023/01/16 08:19:52;;;;;;;0.00;0.00;;;;;;;;;;5055331;28;20206;-78
2023/01/16 08:22:20;;;;;;;0.00;0.00;;;;;;;;;;5055833;28;20210;-78
2023/01/16 08:24:48;;;;;;;0.00;0.00;;;;;;;;;;5055362;28;20214;-77
2023/01/16 08:27:17;;;;;;;0.00;0.00;;;;;;;;;;5055272;28;20608;-77
2023/01/16 08:29:45;;;;;;;0.00;0.00;;;;;;;;;;5055114;28;20544;-78
2023/01/16 08:32:14;;;;;;;0.00;0.00;;;;;;;;;;5055532;28;20248;-77
2023/01/16 08:34:44;;;;;;;0.00;0.00;;;;;;;;;;5055656;28;20562;-78
2023/01/16 08:37:12;;;;;;;0.00;0.00;;;;;;;;;;5052225;28;20634;-78
2023/01/16 08:39:41;;;;;;;0.00;0.00;;;;;;;;;;5052800;28;20671;-77
2023/01/16 08:53:20;;;;;;;0.10;0.10;;;;;;;;;;5055046;28;20268;-77
2023/01/16 08:55:49;;;;;;;0.00;0.00;;;;;;;;;;5055312;28;20275;-77
2023/01/16 08:58:20;;;;;;;0.10;0.10;;;;;;;;;;5054761;28;20219;-77
2023/01/16 09:00:49;;;;;;;0.10;0.10;;;;;;;;;;5054647;28;20210;-78
2023/01/16 09:03:17;;;;;;;0.00;0.00;;;;;;;;;;5054945;28;20211;-77
2023/01/16 09:05:47;;;;;;;0.00;0.00;;;;;;;;;;5038715;28;20664;-77
2023/01/16 09:08:16;;;;;;;0.00;0.00;;;;;;;;;;5045806;28;20230;-77
2023/01/16 09:13:48;;;;;;;0.00;0.00;;;;;;;;;;5050583;28;20655;-77
2023/01/16 09:13:48;;;;;;;0.00;0.00;;;;;;;;;;5054587;28;20741;-78
2023/01/16 09:16:17;;;;;;;0.00;0.00;;;;;;;;;;5054443;28;20253;-77
2023/01/16 09:18:45;;;;;;;0.00;0.00;;;;;;;;;;5054674;28;20226;-78
2023/01/16 09:21:15;;;;;;;0.00;0.00;;;;;;;;;;5054510;28;20203;-77
2023/01/16 09:23:44;;;;;;;0.10;0.10;;;;;;;;;;5053884;28;20199;-77
2023/01/16 09:26:12;;;;;;;0.00;0.00;;;;;;;;;;5054127;28;20268;-77
2023/01/16 09:28:41;;;;;;;0.00;0.00;;;;;;;;;;5054378;28;20325;-77
2023/01/16 09:31:09;;;;;;;0.00;0.00;;;;;;;;;;5054448;28;20256;-77
2023/01/16 09:33:38;;;;;;;0.00;0.00;;;;;;;;;;5054459;28;20219;-77
2023/01/16 09:36:06;;;;;;;0.00;0.00;;;;;;;;;;5054123;28;20572;-77
2023/01/16 09:38:36;;;;;;;0.07;0.07;;;;;;;;;;5061492;28;20261;-77
2023/01/16 09:41:04;;;;;;;0.10;0.10;;;;;;;;;;5073995;28;20222;-78
2023/01/16 09:43:38;;;;;;;0.00;0.00;;;;;;;;;;5073586;28;20202;-78
2023/01/16 09:46:08;;;;;;;0.00;0.00;;;;;;;;;;5074510;28;20187;-77
2023/01/16 09:48:40;;;;;;;0.00;0.00;;;;;;;;;;5074101;28;20250;-78
2023/01/16 09:51:12;;;;;;;0.00;0.00;;;;;;;;;;5074131;28;20229;-77
2023/01/16 09:59:23;;;;;;;0.00;0.00;;;;;;;;;;5074407;28;20602;-77
2023/01/16 10:01:55;;;;;;;0.00;0.00;;;;;;;;;;5074761;28;20200;-77
2023/01/16 10:04:25;;;;;;;0.00;0.00;;;;;;;;;;5074114;28;20206;-77
2023/01/16 10:07:00;;;;;;;0.10;0.10;;;;;;;;;;5073576;28;20651;-77
2023/01/16 10:09:34;;;;;;;0.00;0.00;;;;;;;;;;5054629;28;20706;-78
2023/01/16 10:12:05;;;;;;;0.00;0.00;;;;;;;;;;5054459;28;20632;-77
2023/01/16 10:14:43;;;;;;;0.00;0.00;;;;;;;;;;5054283;28;20207;-77
2023/01/16 10:17:19;;;;;;;0.00;0.00;;;;;;;;;;5054208;28;20262;-78
2023/01/16 10:19:52;;;;;;;0.00;0.00;;;;;;;;;;5054434;28;20229;-77
2023/01/16 10:22:28;;;;;;;0.00;0.00;;;;;;;;;;5054332;28;20297;-77
2023/01/16 10:25:05;;;;;;;0.00;0.00;;;;;;;;;;5053889;28;20652;-77
2023/01/16 10:27:36;;;;;;;0.00;0.00;;;;;;;;;;5053961;28;20258;-77
2023/01/16 10:30:06;;;;;;;0.00;0.00;;;;;;;;;;5054029;28;20257;-78
2023/01/16 10:32:37;;;;;;;0.00;0.00;;;;;;;;;;5053768;28;20203;-77
2023/01/16 10:35:07;;;;;;;0.03;0.03;;;;;;;;;;5053940;28;20734;-77
2023/01/16 10:37:37;;;;;;;0.00;0.00;;;;;;;;;;5053918;28;20231;-77
2023/01/16 10:40:12;;;;;;;0.00;0.00;;;;;;;;;;5053968;28;20218;-77
2023/01/16 10:51:04;;;;;;;0.10;0.10;;;;;;;;;;5054056;28;20184;-77
2023/01/16 10:53:36;;;;;;;0.00;0.00;;;;;;;;;;5055221;28;20271;-78
2023/01/16 10:56:06;;;;;;;0.00;0.00;;;;;;;;;;5057539;28;20555;-77
2023/01/16 10:58:36;;;;;;;0.00;0.00;;;;;;;;;;5057289;28;20273;-78
2023/01/16 11:01:06;;;;;;;0.10;0.10;;;;;;;;;;5057740;28;20199;-77
2023/01/16 11:03:36;;;;;;;0.00;0.00;;;;;;;;;;5056959;28;20276;-78
2023/01/16 11:06:09;;;;;;;0.00;0.00;;;;;;;;;;5056919;28;20290;-77
2023/01/16 11:08:37;;;;;;;0.00;0.00;;;;;;;;;;5056844;28;20235;-77
2023/01/16 11:18:27;;;;;;;0.00;0.00;;;;;;;;;;5056424;28;20253;-77
2023/01/16 11:19:31;;;;;;;0.00;0.00;;;;;;;;;;5057231;28;20239;-78
2023/01/16 11:22:00;;;;;;;0.00;0.00;;;;;;;;;;5057414;28;20258;-77
2023/01/16 11:24:32;;;;;;;0.00;0.00;;;;;;;;;;5056650;28;20229;-78
2023/01/16 11:27:04;;;;;;;0.00;0.00;;;;;;;;;;5056492;28;20187;-78
2023/01/16 11:29:38;;;;;;;0.00;0.00;;;;;;;;;;5056577;28;20223;-77
2023/01/16 11:32:08;;;;;;;0.00;0.00;;;;;;;;;;5057084;28;20202;-78
2023/01/16 11:34:38;;;;;;;0.03;0.03;;;;;;;;;;5056031;28;20590;-77
2023/01/16 11:37:08;;;;;;;0.00;0.00;;;;;;;;;;5056626;28;20519;-79
2023/01/16 11:39:37;;;;;;;0.00;0.00;;;;;;;;;;5056592;28;20257;-77
2023/01/16 11:46:02;;;;;;;0.00;0.00;;;;;;;;;;5056361;28;20230;-77
2023/01/16 11:47:52;;;;;;;0.00;0.00;;;;;;;;;;5056067;28;20257;-78
2023/01/16 11:50:29;;;;;;;0.00;0.00;;;;;;;;;;5056782;28;20257;-78
2023/01/16 11:52:57;;;;;;;0.00;0.00;;;;;;;;;;5056525;28;20632;-77
2023/01/16 11:55:30;;;;;;;0.10;0.10;;;;;;;;;;5055886;28;20273;-78
2023/01/16 11:58:04;;;;;;;0.00;0.00;;;;;;;;;;5055806;28;20223;-78
2023/01/16 12:00:37;;;;;;;0.00;0.00;;;;;;;;;;5056178;28;20234;-78
2023/01/16 12:03:18;;;;;;;0.00;0.00;;;;;;;;;;5056085;28;20226;-77
2023/01/16 12:05:54;;;;;;;0.00;0.00;;;;;;;;;;5055058;28;20191;-77
2023/01/16 12:08:31;;;;;;;0.00;0.00;;;;;;;;;;5056185;28;20751;-78
2023/01/16 12:11:03;;;;;;;0.00;0.00;;;;;;;;;;5056804;28;20642;-78
2023/01/16 12:16:28;;;;;;;0.00;0.00;;;;;;;;;;5055904;28;20223;-78
2023/01/16 12:19:03;;;;;;;0.00;0.00;;;;;;;;;;5055880;28;20732;-78
2023/01/16 12:21:35;;;;;;;0.00;0.00;;;;;;;;;;5055882;28;20729;-78
2023/01/16 12:24:16;;;;;;;0.00;0.00;;;;;;;;;;5055956;28;20203;-78
2023/01/16 12:26:49;;;;;;;0.00;0.00;;;;;;;;;;5055709;28;20566;-77
2023/01/16 12:29:24;;;;;;;0.00;0.00;;;;;;;;;;5055238;28;20223;-77
2023/01/16 12:32:15;;;;;;;0.00;0.00;;;;;;;;;;5055678;28;20196;-78
2023/01/16 12:34:54;;;;;;;0.00;0.00;;;;;;;;;;5050820;28;20234;-78
2023/01/16 12:37:28;;;;;;;0.00;0.00;;;;;;;;;;5055490;28;20715;-78
2023/01/16 12:40:00;;;;;;;0.00;0.00;;;;;;;;;;5055779;28;20187;-78
2023/01/16 12:45:27;;;;;;;0.00;0.00;;;;;;;;;;5055317;28;20187;-78
2023/01/16 12:48:00;;;;;;;0.00;0.00;;;;;;;;;;5055511;28;20238;-78
2023/01/16 12:50:33;;;;;;;0.00;0.00;;;;;;;;;;5055058;28;20191;-78
2023/01/16 12:53:26;;;;;;;0.00;0.00;;;;;;;;;;5055083;28;20190;-78
2023/01/16 12:55:58;;;;;;;0.00;0.00;;;;;;;;;;5048608;28;20745;-78
2023/01/16 12:58:36;;;;;;;0.00;0.00;;;;;;;;;;5054705;28;20233;-78
2023/01/16 13:01:09;;;;;;;0.00;0.00;;;;;;;;;;5054949;28;20726;-77
2023/01/16 13:03:40;;;;;;;0.00;0.00;;;;;;;;;;5054446;28;20357;-77
2023/01/16 13:06:12;;;;;;;0.00;0.00;;;;;;;;;;5055175;28;20199;-77
2023/01/16 13:08:42;;;;;;;0.00;0.00;;;;;;;;;;5054680;28;20753;-77
2023/01/16 13:14:05;;;;;;;0.00;0.00;;;;;;;;;;5054120;28;20243;-76
2023/01/16 13:16:37;;;;;;;0.00;0.00;;;;;;;;;;5053978;28;20203;-77
2023/01/16 13:19:11;;;;;;;0.00;0.00;;;;;;;;;;5054390;28;20223;-77
2023/01/16 13:21:43;;;;;;;0.07;0.07;;;;;;;;;;5054183;28;20202;-76
2023/01/16 13:24:14;;;;;;;0.00;0.00;;;;;;;;;;5053940;28;20191;-77
2023/01/16 13:26:43;;;;;;;0.00;0.00;;;;;;;;;;5054570;28;20183;-79
2023/01/16 13:29:14;;;;;;;0.00;0.00;;;;;;;;;;5054110;28;20245;-79
2023/01/16 13:31:46;;;;;;;0.00;0.00;;;;;;;;;;5053375;28;20226;-78
2023/01/16 13:34:17;;;;;;;0.00;0.00;;;;;;;;;;5052795;28;20210;-79
2023/01/16 13:37:04;;;;;;;0.00;0.00;;;;;;;;;;5052469;28;20230;-80
2023/01/16 13:39:54;;;;;;;0.10;0.10;;;;;;;;;;5051843;28;20238;-79
2023/01/16 13:42:23;;;;;;;0.00;0.00;;;;;;;;;;5027402;28;20773;-78
2023/01/16 13:47:44;;;;;;;0.00;0.00;;;;;;;;;;5026585;28;20301;-80
2023/01/16 13:50:18;;;;;;;0.00;0.00;;;;;;;;;;5052161;28;20578;-79
2023/01/16 13:52:47;;;;;;;0.00;0.00;;;;;;;;;;5052397;28;20570;-79
2023/01/16 13:55:26;;;;;;;0.00;0.00;;;;;;;;;;5052167;28;20258;-79
2023/01/16 13:57:55;;;;;;;0.00;0.00;;;;;;;;;;5051812;28;20292;-78
2023/01/16 14:00:24;;;;;;;0.00;0.00;;;;;;;;;;5050483;28;20206;-79
2023/01/16 14:03:05;;;;;;;0.00;0.00;;;;;;;;;;5051361;28;20249;-79
2023/01/16 14:05:48;;;;;;;0.00;0.00;;;;;;;;;;5049634;28;20195;-79
2023/01/16 14:11:29;;;;;;;0.00;0.00;;;;;;;;;;5051586;28;20210;-79
2023/01/16 14:14:16;;;;;;;0.00;0.00;;;;;;;;;;5051448;28;20191;-80
2023/01/16 14:16:43;;;;;;;0.00;0.00;;;;;;;;;;5051660;28;20223;-80
2023/01/16 14:19:23;;;;;;;0.00;0.00;;;;;;;;;;5051622;28;20271;-79
2023/01/16 14:24:00;;;;;;;0.00;0.00;;;;;;;;;;5051441;28;20199;-79
2023/01/16 14:24:52;;;;;;;0.00;0.00;;;;;;;;;;5051044;28;20584;-79
2023/01/16 14:27:21;;;;;;;0.00;0.00;;;;;;;;;;5051175;28;20269;-80
2023/01/16 14:29:52;;;;;;;0.00;0.00;;;;;;;;;;5055584;28;20633;-79
2023/01/16 14:32:21;;;;;;;0.00;0.00;;;;;;;;;;5055107;28;20207;-80
2023/01/16 14:34:53;;;;;;;0.00;0.00;;;;;;;;;;5055209;28;20210;-79
2023/01/16 14:37:24;;;;;;;0.00;0.00;;;;;;;;;;5054945;28;20284;-80
2023/01/16 14:39:54;;;;;;;0.00;0.00;;;;;;;;;;5055341;28;20265;-79
2023/01/16 14:57:08;;;;;;;0.00;0.00;;;;;;;;;;5044913;28;20203;-79
2023/01/16 14:59:37;;;;;;;0.00;0.00;;;;;;;;;;5054542;28;20280;-79
2023/01/16 15:02:20;;;;;;;0.00;0.00;;;;;;;;;;5055219;28;20552;-80
2023/01/16 15:04:51;;;;;;;0.00;0.00;;;;;;;;;;5034748;28;20629;-79
2023/01/16 15:07:24;;;;;;;0.00;0.00;;;;;;;;;;5051502;28;20226;-80
2023/01/16 15:09:54;;;;;;;0.00;0.00;;;;;;;;;;5054342;28;20203;-79
2023/01/16 15:12:22;;;;;;;0.00;0.00;;;;;;;;;;5045475;28;20211;-79
2023/01/16 15:14:55;;;;;;;0.00;0.00;;;;;;;;;;5035632;28;20227;-79
2023/01/16 15:23:09;;;;;;;0.00;0.00;;;;;;;;;;5044243;28;20566;-78
2023/01/16 15:25:42;;;;;;;0.00;0.00;;;;;;;;;;5056235;28;20195;-78
2023/01/16 15:28:14;;;;;;;0.00;0.00;;;;;;;;;;5056952;28;20226;-77
2023/01/16 15:30:50;;;;;;;0.00;0.00;;;;;;;;;;5057191;28;20639;-78
2023/01/16 15:33:49;;;;;;;0.00;0.00;;;;;;;;;;5056948;28;20258;-78
2023/01/16 15:36:20;;;;;;;0.00;0.00;;;;;;;;;;5056209;28;20288;-79
2023/01/16 15:38:51;;;;;;;0.10;0.10;;;;;;;;;;5055257;28;20237;-79
2023/01/16 15:46:32;;;;;;;0.00;0.00;;;;;;;;;;5055748;28;20587;-80
2023/01/16 15:47:21;;;;;;;0.00;0.00;;;;;;;;;;5055071;28;20203;-76
2023/01/16 15:49:54;;;;;;;0.00;0.00;;;;;;;;;;5052653;28;20655;-77
2023/01/16 15:52:23;;;;;;;0.00;0.00;;;;;;;;;;5045155;28;20698;-76
2023/01/16 15:54:53;;;;;;;0.00;0.00;;;;;;;;;;5054433;28;20706;-78
2023/01/16 16:05:23;;;;;;;0.00;0.00;;;;;;;;;;5012323;28;20219;-79
2023/01/16 16:07:52;;;;;;;0.00;0.00;;;;;;;;;;5014258;28;20686;-78
2023/01/16 16:13:23;;;;;;;0.00;0.00;;;;;;;;;;5010010;28;20212;-78
2023/01/16 16:18:52;;;;;;;0.00;0.00;;;;;;;;;;5013861;28;20330;-79
2023/01/16 16:21:21;;;;;;;0.00;0.00;;;;;;;;;;5022534;28;20212;-80
2023/01/16 16:23:55;;;;;;;0.00;0.00;;;;;;;;;;5012559;28;20200;-79
2023/01/16 16:26:25;;;;;;;0.00;0.00;;;;;;;;;;5011251;28;20255;-79
2023/01/16 16:28:54;;;;;;;0.07;0.07;;;;;;;;;;5010922;28;20263;-79
2023/01/16 16:31:25;;;;;;;0.00;0.00;;;;;;;;;;5010250;28;20291;-79
2023/01/16 16:33:55;;;;;;;0.00;0.00;;;;;;;;;;5011319;28;20686;-79
2023/01/16 16:36:24;;;;;;;0.00;0.00;;;;;;;;;;5011194;28;20231;-79
2023/01/16 16:38:54;;;;;;;0.00;0.00;;;;;;;;;;5011096;28;20217;-79
2023/01/16 16:44:26;;;;;;;0.00;0.00;;;;;;;;;;4995969;28;20200;-79
2023/01/16 16:49:39;;;;;;;0.00;0.00;;;;;;;;;;4991701;28;20243;-79
2023/01/16 16:52:29;;;;;;;0.00;0.00;;;;;;;;;;5011216;28;20278;-80